sensor_id;sensor_type;location;lat;lon;timestamp;P1;durP1;ratioP1;P2;durP2;ratioP2
30850;SDS011;17567;48.382;9.102;2022-11-22T00:00:35;1.10;;;0.93;;
30850;SDS011;17567;48.382;9.102;2022-11-22T00:05:36;1.27;;;1.10;;
30850;SDS011;17567;48.382;9.102;2022-11-22T00:10:37;2.97;;;1.10;;
30850;SDS011;17567;48.382;9.102;2022-11-22T00:15:38;1.43;;;1.00;;
30850;SDS011;17567;48.382;9.102;2022-11-22T00:20:39;1.00;;;0.90;;
30850;SDS011;17567;48.382;9.102;2022-11-22T00:25:40;2.10;;;1.13;;
30850;SDS011;17567;48.382;9.102;2022-11-22T00:30:41;1.07;;;1.00;;
30850;SDS011;17567;48.382;9.102;2022-11-22T00:35:43;2.20;;;1.40;;
30850;SDS011;17567;48.382;9.102;2022-11-22T00:40:44;2.87;;;1.40;;
30850;SDS011;17567;48.382;9.102;2022-11-22T00:45:45;1.90;;;1.40;;
30850;SDS011;17567;48.382;9.102;2022-11-22T00:50:47;2.33;;;1.20;;
30850;SDS011;17567;48.382;9.102;2022-11-22T00:55:49;1.70;;;1.37;;
30850;SDS011;17567;48.382;9.102;2022-11-22T01:00:50;1.60;;;1.07;;
30850;SDS011;17567;48.382;9.102;2022-11-22T01:05:51;4.30;;;1.80;;
30850;SDS011;17567;48.382;9.102;2022-11-22T01:10:59;2.73;;;1.60;;
30850;SDS011;17567;48.382;9.102;2022-11-22T01:16:00;3.73;;;3.00;;
30850;SDS011;17567;48.382;9.102;2022-11-22T01:21:02;4.87;;;3.50;;
30850;SDS011;17567;48.382;9.102;2022-11-22T01:26:05;6.77;;;3.83;;
30850;SDS011;17567;48.382;9.102;2022-11-22T01:31:07;5.37;;;3.50;;
30850;SDS011;17567;48.382;9.102;2022-11-22T01:36:09;4.87;;;3.20;;
30850;SDS011;17567;48.382;9.102;2022-11-22T01:41:10;8.40;;;3.27;;
30850;SDS011;17567;48.382;9.102;2022-11-22T01:46:29;5.30;;;3.43;;
30850;SDS011;17567;48.382;9.102;2022-11-22T01:51:33;5.40;;;3.53;;
30850;SDS011;17567;48.382;9.102;2022-11-22T01:56:36;3.43;;;2.60;;
30850;SDS011;17567;48.382;9.102;2022-11-22T02:01:38;2.70;;;2.17;;
30850;SDS011;17567;48.382;9.102;2022-11-22T02:06:48;2.10;;;1.87;;
30850;SDS011;17567;48.382;9.102;2022-11-22T02:11:52;3.63;;;1.83;;
30850;SDS011;17567;48.382;9.102;2022-11-22T02:16:53;2.23;;;1.60;;
30850;SDS011;17567;48.382;9.102;2022-11-22T02:21:57;3.33;;;1.50;;
30850;SDS011;17567;48.382;9.102;2022-11-22T02:26:59;3.13;;;1.70;;
30850;SDS011;17567;48.382;9.102;2022-11-22T02:32:00;3.37;;;1.50;;
30850;SDS011;17567;48.382;9.102;2022-11-22T02:37:01;6.37;;;1.83;;
30850;SDS011;17567;48.382;9.102;2022-11-22T02:42:03;4.33;;;1.70;;
30850;SDS011;17567;48.382;9.102;2022-11-22T02:47:04;4.10;;;1.77;;
30850;SDS011;17567;48.382;9.102;2022-11-22T02:52:05;2.57;;;1.80;;
30850;SDS011;17567;48.382;9.102;2022-11-22T02:57:06;3.17;;;1.57;;
30850;SDS011;17567;48.382;9.102;2022-11-22T03:02:07;3.03;;;1.57;;
30850;SDS011;17567;48.382;9.102;2022-11-22T03:07:09;3.93;;;1.40;;
30850;SDS011;17567;48.382;9.102;2022-11-22T03:12:10;4.17;;;1.20;;
30850;SDS011;17567;48.382;9.102;2022-11-22T03:17:12;4.87;;;2.17;;
30850;SDS011;17567;48.382;9.102;2022-11-22T03:22:13;6.37;;;1.70;;
30850;SDS011;17567;48.382;9.102;2022-11-22T03:27:14;5.40;;;1.67;;
30850;SDS011;17567;48.382;9.102;2022-11-22T03:32:15;3.47;;;1.60;;
30850;SDS011;17567;48.382;9.102;2022-11-22T03:37:16;3.67;;;1.63;;
30850;SDS011;17567;48.382;9.102;2022-11-22T03:42:17;4.23;;;1.93;;
30850;SDS011;17567;48.382;9.102;2022-11-22T03:47:18;3.63;;;1.70;;
30850;SDS011;17567;48.382;9.102;2022-11-22T03:52:19;2.97;;;1.57;;
30850;SDS011;17567;48.382;9.102;2022-11-22T03:57:20;4.63;;;1.63;;
30850;SDS011;17567;48.382;9.102;2022-11-22T04:02:21;4.40;;;1.70;;
30850;SDS011;17567;48.382;9.102;2022-11-22T04:07:22;5.57;;;1.80;;
30850;SDS011;17567;48.382;9.102;2022-11-22T04:12:24;4.17;;;2.00;;
30850;SDS011;17567;48.382;9.102;2022-11-22T04:17:25;5.23;;;1.50;;
30850;SDS011;17567;48.382;9.102;2022-11-22T04:22:53;4.80;;;1.67;;
30850;SDS011;17567;48.382;9.102;2022-11-22T04:27:55;4.13;;;1.97;;
30850;SDS011;17567;48.382;9.102;2022-11-22T04:32:56;3.87;;;1.40;;
30850;SDS011;17567;48.382;9.102;2022-11-22T04:37:57;5.80;;;2.13;;
30850;SDS011;17567;48.382;9.102;2022-11-22T04:42:59;6.40;;;2.30;;
30850;SDS011;17567;48.382;9.102;2022-11-22T04:48:18;6.07;;;2.03;;
30850;SDS011;17567;48.382;9.102;2022-11-22T04:53:19;7.00;;;2.10;;
30850;SDS011;17567;48.382;9.102;2022-11-22T04:58:23;3.73;;;2.00;;
30850;SDS011;17567;48.382;9.102;2022-11-22T05:03:25;2.10;;;1.77;;
30850;SDS011;17567;48.382;9.102;2022-11-22T05:08:26;7.20;;;2.10;;
30850;SDS011;17567;48.382;9.102;2022-11-22T05:13:39;6.07;;;1.73;;
30850;SDS011;17567;48.382;9.102;2022-11-22T05:18:41;5.70;;;1.70;;
30850;SDS011;17567;48.382;9.102;2022-11-22T05:23:42;2.83;;;1.70;;
30850;SDS011;17567;48.382;9.102;2022-11-22T05:28:56;5.43;;;2.13;;
30850;SDS011;17567;48.382;9.102;2022-11-22T05:33:57;3.73;;;1.60;;
30850;SDS011;17567;48.382;9.102;2022-11-22T05:38:58;3.67;;;1.80;;
30850;SDS011;17567;48.382;9.102;2022-11-22T05:43:59;7.20;;;2.30;;
30850;SDS011;17567;48.382;9.102;2022-11-22T05:49:00;5.10;;;2.17;;
30850;SDS011;17567;48.382;9.102;2022-11-22T05:54:02;7.07;;;2.10;;
30850;SDS011;17567;48.382;9.102;2022-11-22T05:59:03;5.87;;;2.10;;
30850;SDS011;17567;48.382;9.102;2022-11-22T06:04:04;4.57;;;2.17;;
30850;SDS011;17567;48.382;9.102;2022-11-22T06:09:05;6.30;;;2.50;;
30850;SDS011;17567;48.382;9.102;2022-11-22T06:14:07;4.53;;;2.73;;
30850;SDS011;17567;48.382;9.102;2022-11-22T06:19:08;4.90;;;3.43;;
30850;SDS011;17567;48.382;9.102;2022-11-22T06:24:09;10.77;;;2.20;;
30850;SDS011;17567;48.382;9.102;2022-11-22T06:29:10;71.47;;;27.23;;
30850;SDS011;17567;48.382;9.102;2022-11-22T06:34:11;44.77;;;20.37;;
30850;SDS011;17567;48.382;9.102;2022-11-22T06:39:13;24.40;;;13.83;;
30850;SDS011;17567;48.382;9.102;2022-11-22T06:44:14;70.50;;;31.10;;
30850;SDS011;17567;48.382;9.102;2022-11-22T06:49:15;54.43;;;25.20;;
30850;SDS011;17567;48.382;9.102;2022-11-22T06:54:17;55.90;;;26.10;;
30850;SDS011;17567;48.382;9.102;2022-11-22T06:59:18;19.37;;;9.10;;
30850;SDS011;17567;48.382;9.102;2022-11-22T07:04:19;16.73;;;7.70;;
30850;SDS011;17567;48.382;9.102;2022-11-22T07:09:20;15.97;;;6.37;;
30850;SDS011;17567;48.382;9.102;2022-11-22T07:14:21;13.63;;;5.97;;
30850;SDS011;17567;48.382;9.102;2022-11-22T07:19:22;9.17;;;7.03;;
30850;SDS011;17567;48.382;9.102;2022-11-22T07:24:24;8.10;;;6.93;;
30850;SDS011;17567;48.382;9.102;2022-11-22T07:29:25;8.90;;;2.70;;
30850;SDS011;17567;48.382;9.102;2022-11-22T07:34:26;17.33;;;8.03;;
30850;SDS011;17567;48.382;9.102;2022-11-22T07:39:27;10.43;;;5.80;;
30850;SDS011;17567;48.382;9.102;2022-11-22T07:44:28;6.20;;;2.30;;
30850;SDS011;17567;48.382;9.102;2022-11-22T07:49:30;5.63;;;2.10;;
30850;SDS011;17567;48.382;9.102;2022-11-22T07:54:31;2.97;;;1.70;;
30850;SDS011;17567;48.382;9.102;2022-11-22T07:59:32;2.43;;;1.50;;
30850;SDS011;17567;48.382;9.102;2022-11-22T08:04:33;4.40;;;2.20;;
30850;SDS011;17567;48.382;9.102;2022-11-22T08:09:34;4.07;;;3.30;;
30850;SDS011;17567;48.382;9.102;2022-11-22T08:14:35;6.53;;;4.57;;
30850;SDS011;17567;48.382;9.102;2022-11-22T08:19:36;8.77;;;4.10;;
30850;SDS011;17567;48.382;9.102;2022-11-22T08:24:37;9.00;;;5.70;;
30850;SDS011;17567;48.382;9.102;2022-11-22T08:29:38;16.63;;;6.07;;
30850;SDS011;17567;48.382;9.102;2022-11-22T08:34:39;7.97;;;5.70;;
30850;SDS011;17567;48.382;9.102;2022-11-22T08:39:40;14.37;;;6.43;;
30850;SDS011;17567;48.382;9.102;2022-11-22T08:44:41;9.67;;;4.50;;
30850;SDS011;17567;48.382;9.102;2022-11-22T08:49:42;7.17;;;2.10;;
30850;SDS011;17567;48.382;9.102;2022-11-22T08:54:43;9.47;;;2.67;;
30850;SDS011;17567;48.382;9.102;2022-11-22T08:59:45;8.67;;;1.93;;
30850;SDS011;17567;48.382;9.102;2022-11-22T09:04:46;5.07;;;1.70;;
30850;SDS011;17567;48.382;9.102;2022-11-22T09:09:47;7.47;;;1.80;;
30850;SDS011;17567;48.382;9.102;2022-11-22T09:14:48;8.40;;;2.13;;
30850;SDS011;17567;48.382;9.102;2022-11-22T09:19:49;2.53;;;1.57;;
30850;SDS011;17567;48.382;9.102;2022-11-22T09:24:51;7.13;;;1.80;;
30850;SDS011;17567;48.382;9.102;2022-11-22T09:29:52;3.43;;;1.70;;
30850;SDS011;17567;48.382;9.102;2022-11-22T09:34:53;6.10;;;1.80;;
30850;SDS011;17567;48.382;9.102;2022-11-22T09:39:54;4.73;;;1.40;;
30850;SDS011;17567;48.382;9.102;2022-11-22T09:45:05;5.40;;;1.77;;
30850;SDS011;17567;48.382;9.102;2022-11-22T10:00:19;2.30;;;1.10;;
30850;SDS011;17567;48.382;9.102;2022-11-22T10:05:23;4.37;;;1.50;;
30850;SDS011;17567;48.382;9.102;2022-11-22T10:10:31;7.83;;;1.63;;
30850;SDS011;17567;48.382;9.102;2022-11-22T10:20:53;2.40;;;1.40;;
30850;SDS011;17567;48.382;9.102;2022-11-22T10:25:58;4.10;;;1.20;;
30850;SDS011;17567;48.382;9.102;2022-11-22T10:36:45;7.03;;;2.30;;
30850;SDS011;17567;48.382;9.102;2022-11-22T10:47:09;5.47;;;1.53;;
30850;SDS011;17567;48.382;9.102;2022-11-22T11:07:40;6.50;;;2.00;;
30850;SDS011;17567;48.382;9.102;2022-11-22T11:12:57;3.30;;;1.43;;
30850;SDS011;17567;48.382;9.102;2022-11-22T11:17:59;4.30;;;1.53;;
30850;SDS011;17567;48.382;9.102;2022-11-22T11:23:01;3.73;;;1.23;;
30850;SDS011;17567;48.382;9.102;2022-11-22T11:28:04;6.63;;;1.70;;
30850;SDS011;17567;48.382;9.102;2022-11-22T11:33:13;4.37;;;1.47;;
30850;SDS011;17567;48.382;9.102;2022-11-22T11:38:27;6.70;;;1.53;;
30850;SDS011;17567;48.382;9.102;2022-11-22T11:43:28;7.93;;;1.23;;
30850;SDS011;17567;48.382;9.102;2022-11-22T11:48:36;6.93;;;1.80;;
30850;SDS011;17567;48.382;9.102;2022-11-22T11:53:38;2.30;;;1.60;;
30850;SDS011;17567;48.382;9.102;2022-11-22T11:58:41;3.40;;;1.50;;
30850;SDS011;17567;48.382;9.102;2022-11-22T12:03:48;6.47;;;1.50;;
30850;SDS011;17567;48.382;9.102;2022-11-22T12:08:50;3.63;;;1.70;;
30850;SDS011;17567;48.382;9.102;2022-11-22T12:14:01;5.87;;;1.90;;
30850;SDS011;17567;48.382;9.102;2022-11-22T12:29:32;4.27;;;1.37;;
30850;SDS011;17567;48.382;9.102;2022-11-22T12:39:55;4.83;;;1.40;;
30850;SDS011;17567;48.382;9.102;2022-11-22T12:50:37;3.67;;;1.20;;
30850;SDS011;17567;48.382;9.102;2022-11-22T13:06:06;2.50;;;1.10;;
30850;SDS011;17567;48.382;9.102;2022-11-22T13:16:30;6.30;;;1.20;;
30850;SDS011;17567;48.382;9.102;2022-11-22T13:37:12;3.07;;;1.13;;
30850;SDS011;17567;48.382;9.102;2022-11-22T13:42:24;1.03;;;0.90;;
30850;SDS011;17567;48.382;9.102;2022-11-22T13:47:36;3.10;;;2.77;;
30850;SDS011;17567;48.382;9.102;2022-11-22T13:53:00;0.70;;;0.70;;
30850;SDS011;17567;48.382;9.102;2022-11-22T14:08:37;1.10;;;1.00;;
30850;SDS011;17567;48.382;9.102;2022-11-22T14:13:45;1.73;;;0.90;;
30850;SDS011;17567;48.382;9.102;2022-11-22T14:24:11;2.60;;;0.90;;
30850;SDS011;17567;48.382;9.102;2022-11-22T14:34:33;5.47;;;3.23;;
30850;SDS011;17567;48.382;9.102;2022-11-22T14:44:46;1.20;;;1.10;;
30850;SDS011;17567;48.382;9.102;2022-11-22T14:49:49;2.17;;;1.13;;
30850;SDS011;17567;48.382;9.102;2022-11-22T14:54:55;1.40;;;1.00;;
30850;SDS011;17567;48.382;9.102;2022-11-22T15:15:38;2.60;;;0.93;;
30850;SDS011;17567;48.382;9.102;2022-11-22T15:20:43;2.53;;;1.30;;
30850;SDS011;17567;48.382;9.102;2022-11-22T15:26:01;1.80;;;1.30;;
30850;SDS011;17567;48.382;9.102;2022-11-22T15:31:07;3.57;;;2.90;;
30850;SDS011;17567;48.382;9.102;2022-11-22T15:41:32;4.10;;;2.30;;
30850;SDS011;17567;48.382;9.102;2022-11-22T15:46:37;3.33;;;3.03;;
30850;SDS011;17567;48.382;9.102;2022-11-22T15:56:55;2.00;;;1.80;;
30850;SDS011;17567;48.382;9.102;2022-11-22T16:02:00;7.33;;;3.60;;
30850;SDS011;17567;48.382;9.102;2022-11-22T16:07:02;5.00;;;2.87;;
30850;SDS011;17567;48.382;9.102;2022-11-22T16:12:05;4.30;;;2.83;;
30850;SDS011;17567;48.382;9.102;2022-11-22T16:22:29;1.47;;;1.23;;
30850;SDS011;17567;48.382;9.102;2022-11-22T16:27:31;15.00;;;8.03;;
30850;SDS011;17567;48.382;9.102;2022-11-22T16:32:32;23.50;;;10.77;;
30850;SDS011;17567;48.382;9.102;2022-11-22T16:37:33;7.63;;;4.27;;
30850;SDS011;17567;48.382;9.102;2022-11-22T16:42:35;7.33;;;4.83;;
30850;SDS011;17567;48.382;9.102;2022-11-22T16:47:40;3.77;;;2.17;;
30850;SDS011;17567;48.382;9.102;2022-11-22T16:52:42;6.67;;;2.33;;
30850;SDS011;17567;48.382;9.102;2022-11-22T16:57:44;9.67;;;6.93;;
30850;SDS011;17567;48.382;9.102;2022-11-22T17:02:45;2.10;;;1.27;;
30850;SDS011;17567;48.382;9.102;2022-11-22T17:07:46;2.17;;;1.30;;
30850;SDS011;17567;48.382;9.102;2022-11-22T17:12:47;4.47;;;1.93;;
30850;SDS011;17567;48.382;9.102;2022-11-22T17:17:48;4.73;;;3.60;;
30850;SDS011;17567;48.382;9.102;2022-11-22T17:22:49;3.80;;;2.60;;
30850;SDS011;17567;48.382;9.102;2022-11-22T17:27:50;2.00;;;1.60;;
30850;SDS011;17567;48.382;9.102;2022-11-22T17:32:51;4.63;;;2.30;;
30850;SDS011;17567;48.382;9.102;2022-11-22T17:37:52;3.37;;;2.27;;
30850;SDS011;17567;48.382;9.102;2022-11-22T17:42:54;19.40;;;8.87;;
30850;SDS011;17567;48.382;9.102;2022-11-22T17:47:55;9.10;;;6.67;;
30850;SDS011;17567;48.382;9.102;2022-11-22T17:52:56;17.10;;;12.53;;
30850;SDS011;17567;48.382;9.102;2022-11-22T17:57:58;7.23;;;4.17;;
30850;SDS011;17567;48.382;9.102;2022-11-22T18:02:59;6.93;;;4.63;;
30850;SDS011;17567;48.382;9.102;2022-11-22T18:08:00;5.83;;;3.93;;
30850;SDS011;17567;48.382;9.102;2022-11-22T18:13:01;7.93;;;5.83;;
30850;SDS011;17567;48.382;9.102;2022-11-22T18:18:02;2.93;;;2.70;;
30850;SDS011;17567;48.382;9.102;2022-11-22T18:23:04;24.73;;;10.03;;
30850;SDS011;17567;48.382;9.102;2022-11-22T18:28:05;16.53;;;7.40;;
30850;SDS011;17567;48.382;9.102;2022-11-22T18:33:06;6.07;;;4.17;;
30850;SDS011;17567;48.382;9.102;2022-11-22T18:38:07;3.30;;;2.20;;
30850;SDS011;17567;48.382;9.102;2022-11-22T18:43:08;3.50;;;2.80;;
30850;SDS011;17567;48.382;9.102;2022-11-22T18:48:09;6.17;;;2.57;;
30850;SDS011;17567;48.382;9.102;2022-11-22T18:53:10;4.33;;;2.47;;
30850;SDS011;17567;48.382;9.102;2022-11-22T18:58:12;7.23;;;4.37;;
30850;SDS011;17567;48.382;9.102;2022-11-22T19:03:19;5.83;;;3.77;;
30850;SDS011;17567;48.382;9.102;2022-11-22T19:08:20;6.57;;;2.67;;
30850;SDS011;17567;48.382;9.102;2022-11-22T19:13:21;4.17;;;1.87;;
30850;SDS011;17567;48.382;9.102;2022-11-22T19:18:22;11.43;;;4.13;;
30850;SDS011;17567;48.382;9.102;2022-11-22T19:23:23;3.27;;;1.80;;
30850;SDS011;17567;48.382;9.102;2022-11-22T19:28:25;47.60;;;19.57;;
30850;SDS011;17567;48.382;9.102;2022-11-22T19:33:27;9.80;;;3.20;;
30850;SDS011;17567;48.382;9.102;2022-11-22T19:38:28;17.30;;;10.50;;
30850;SDS011;17567;48.382;9.102;2022-11-22T19:43:29;7.33;;;4.60;;
30850;SDS011;17567;48.382;9.102;2022-11-22T19:48:30;5.97;;;3.37;;
30850;SDS011;17567;48.382;9.102;2022-11-22T19:53:31;4.37;;;2.10;;
30850;SDS011;17567;48.382;9.102;2022-11-22T19:58:34;5.97;;;3.50;;
30850;SDS011;17567;48.382;9.102;2022-11-22T20:03:35;7.33;;;4.30;;
30850;SDS011;17567;48.382;9.102;2022-11-22T20:08:42;6.40;;;3.10;;
30850;SDS011;17567;48.382;9.102;2022-11-22T20:13:44;5.10;;;3.70;;
30850;SDS011;17567;48.382;9.102;2022-11-22T20:18:45;8.40;;;3.83;;
30850;SDS011;17567;48.382;9.102;2022-11-22T20:23:47;8.07;;;3.20;;
30850;SDS011;17567;48.382;9.102;2022-11-22T20:28:56;6.97;;;4.20;;
30850;SDS011;17567;48.382;9.102;2022-11-22T20:33:57;5.33;;;3.57;;
30850;SDS011;17567;48.382;9.102;2022-11-22T20:38:59;10.07;;;5.40;;
30850;SDS011;17567;48.382;9.102;2022-11-22T20:44:01;20.80;;;8.83;;
30850;SDS011;17567;48.382;9.102;2022-11-22T20:49:02;11.97;;;7.60;;
30850;SDS011;17567;48.382;9.102;2022-11-22T20:54:04;22.07;;;9.97;;
30850;SDS011;17567;48.382;9.102;2022-11-22T20:59:06;25.47;;;11.53;;
30850;SDS011;17567;48.382;9.102;2022-11-22T21:04:07;25.90;;;10.57;;
30850;SDS011;17567;48.382;9.102;2022-11-22T21:09:08;31.07;;;12.33;;
30850;SDS011;17567;48.382;9.102;2022-11-22T21:14:10;23.57;;;11.00;;
30850;SDS011;17567;48.382;9.102;2022-11-22T21:19:11;12.57;;;7.37;;
30850;SDS011;17567;48.382;9.102;2022-11-22T21:24:13;11.13;;;5.60;;
30850;SDS011;17567;48.382;9.102;2022-11-22T21:29:15;18.47;;;7.17;;
30850;SDS011;17567;48.382;9.102;2022-11-22T21:34:16;6.40;;;4.57;;
30850;SDS011;17567;48.382;9.102;2022-11-22T21:39:17;12.10;;;7.63;;
30850;SDS011;17567;48.382;9.102;2022-11-22T21:44:18;11.23;;;8.10;;
30850;SDS011;17567;48.382;9.102;2022-11-22T21:49:19;7.03;;;4.30;;
30850;SDS011;17567;48.382;9.102;2022-11-22T21:54:20;8.17;;;4.03;;
30850;SDS011;17567;48.382;9.102;2022-11-22T21:59:21;13.27;;;5.93;;
30850;SDS011;17567;48.382;9.102;2022-11-22T22:04:22;8.00;;;3.87;;
30850;SDS011;17567;48.382;9.102;2022-11-22T22:09:23;8.30;;;4.53;;
30850;SDS011;17567;48.382;9.102;2022-11-22T22:14:25;7.50;;;3.73;;
30850;SDS011;17567;48.382;9.102;2022-11-22T22:19:26;10.13;;;3.70;;
30850;SDS011;17567;48.382;9.102;2022-11-22T22:24:27;8.43;;;3.50;;
30850;SDS011;17567;48.382;9.102;2022-11-22T22:29:28;5.77;;;3.57;;
30850;SDS011;17567;48.382;9.102;2022-11-22T22:34:29;5.47;;;3.17;;
30850;SDS011;17567;48.382;9.102;2022-11-22T22:39:30;10.83;;;5.50;;
30850;SDS011;17567;48.382;9.102;2022-11-22T22:44:31;16.17;;;7.33;;
30850;SDS011;17567;48.382;9.102;2022-11-22T22:49:32;5.33;;;3.50;;
30850;SDS011;17567;48.382;9.102;2022-11-22T22:54:33;7.07;;;4.43;;
30850;SDS011;17567;48.382;9.102;2022-11-22T22:59:35;2.40;;;2.20;;
30850;SDS011;17567;48.382;9.102;2022-11-22T23:04:36;10.97;;;4.77;;
30850;SDS011;17567;48.382;9.102;2022-11-22T23:09:39;5.47;;;3.80;;
30850;SDS011;17567;48.382;9.102;2022-11-22T23:14:40;5.97;;;3.53;;
30850;SDS011;17567;48.382;9.102;2022-11-22T23:19:41;5.13;;;3.43;;
30850;SDS011;17567;48.382;9.102;2022-11-22T23:24:42;4.30;;;3.13;;
30850;SDS011;17567;48.382;9.102;2022-11-22T23:29:44;4.17;;;2.57;;
30850;SDS011;17567;48.382;9.102;2022-11-22T23:34:45;5.53;;;2.20;;
30850;SDS011;17567;48.382;9.102;2022-11-22T23:39:46;6.43;;;2.00;;
30850;SDS011;17567;48.382;9.102;2022-11-22T23:44:47;4.87;;;2.87;;
30850;SDS011;17567;48.382;9.102;2022-11-22T23:49:48;6.23;;;2.87;;
30850;SDS011;17567;48.382;9.102;2022-11-22T23:54:49;5.97;;;2.87;;
30850;SDS011;17567;48.382;9.102;2022-11-22T23:59:50;7.37;;;2.77;;
